sensor_id;sensor_type;location;lat;lon;timestamp;P1;durP1;ratioP1;P2;durP2;ratioP2
22270;SDS011;11304;53.520;10.104;2022-12-07T00:00:29;21.23;;;14.60;;
22270;SDS011;11304;53.520;10.104;2022-12-07T00:02:55;19.52;;;14.38;;
22270;SDS011;11304;53.520;10.104;2022-12-07T00:05:21;22.45;;;14.93;;
22270;SDS011;11304;53.520;10.104;2022-12-07T00:07:48;23.05;;;15.50;;
22270;SDS011;11304;53.520;10.104;2022-12-07T00:10:15;20.67;;;14.70;;
22270;SDS011;11304;53.520;10.104;2022-12-07T00:12:41;24.13;;;15.48;;
22270;SDS011;11304;53.520;10.104;2022-12-07T00:15:07;21.58;;;15.68;;
22270;SDS011;11304;53.520;10.104;2022-12-07T00:17:33;21.77;;;15.20;;
22270;SDS011;11304;53.520;10.104;2022-12-07T00:19:59;21.95;;;15.23;;
22270;SDS011;11304;53.520;10.104;2022-12-07T00:22:25;21.75;;;16.25;;
22270;SDS011;11304;53.520;10.104;2022-12-07T00:24:51;25.60;;;15.52;;
22270;SDS011;11304;53.520;10.104;2022-12-07T00:27:18;27.20;;;15.90;;
22270;SDS011;11304;53.520;10.104;2022-12-07T00:29:44;23.15;;;15.27;;
22270;SDS011;11304;53.520;10.104;2022-12-07T00:32:10;22.45;;;16.67;;
22270;SDS011;11304;53.520;10.104;2022-12-07T00:34:36;22.13;;;15.63;;
22270;SDS011;11304;53.520;10.104;2022-12-07T00:37:02;20.17;;;15.40;;
22270;SDS011;11304;53.520;10.104;2022-12-07T00:39:28;22.60;;;16.42;;
22270;SDS011;11304;53.520;10.104;2022-12-07T00:41:54;23.02;;;15.20;;
22270;SDS011;11304;53.520;10.104;2022-12-07T00:44:20;21.63;;;15.27;;
22270;SDS011;11304;53.520;10.104;2022-12-07T00:46:46;21.95;;;14.43;;
22270;SDS011;11304;53.520;10.104;2022-12-07T00:49:13;22.98;;;13.95;;
22270;SDS011;11304;53.520;10.104;2022-12-07T00:51:39;20.33;;;14.70;;
22270;SDS011;11304;53.520;10.104;2022-12-07T00:54:05;20.33;;;13.30;;
22270;SDS011;11304;53.520;10.104;2022-12-07T00:56:31;21.70;;;13.50;;
22270;SDS011;11304;53.520;10.104;2022-12-07T00:58:58;20.65;;;13.57;;
22270;SDS011;11304;53.520;10.104;2022-12-07T01:01:25;19.25;;;13.35;;
22270;SDS011;11304;53.520;10.104;2022-12-07T01:03:52;20.30;;;12.95;;
22270;SDS011;11304;53.520;10.104;2022-12-07T01:06:19;21.48;;;12.50;;
22270;SDS011;11304;53.520;10.104;2022-12-07T01:08:45;18.50;;;12.95;;
22270;SDS011;11304;53.520;10.104;2022-12-07T01:11:12;17.90;;;11.90;;
22270;SDS011;11304;53.520;10.104;2022-12-07T01:13:39;17.92;;;11.95;;
22270;SDS011;11304;53.520;10.104;2022-12-07T01:16:05;18.95;;;12.82;;
22270;SDS011;11304;53.520;10.104;2022-12-07T01:18:33;18.60;;;11.95;;
22270;SDS011;11304;53.520;10.104;2022-12-07T01:21:00;16.75;;;11.75;;
22270;SDS011;11304;53.520;10.104;2022-12-07T01:23:26;18.77;;;12.63;;
22270;SDS011;11304;53.520;10.104;2022-12-07T01:25:59;20.55;;;11.82;;
22270;SDS011;11304;53.520;10.104;2022-12-07T01:28:25;18.58;;;12.18;;
22270;SDS011;11304;53.520;10.104;2022-12-07T01:30:57;23.23;;;12.02;;
22270;SDS011;11304;53.520;10.104;2022-12-07T01:33:23;19.95;;;11.48;;
22270;SDS011;11304;53.520;10.104;2022-12-07T01:35:49;19.13;;;11.70;;
22270;SDS011;11304;53.520;10.104;2022-12-07T01:38:15;21.40;;;11.77;;
22270;SDS011;11304;53.520;10.104;2022-12-07T01:40:41;17.50;;;11.95;;
22270;SDS011;11304;53.520;10.104;2022-12-07T01:43:13;18.10;;;11.07;;
22270;SDS011;11304;53.520;10.104;2022-12-07T01:45:40;18.40;;;11.55;;
22270;SDS011;11304;53.520;10.104;2022-12-07T01:48:07;17.13;;;10.70;;
22270;SDS011;11304;53.520;10.104;2022-12-07T01:50:35;16.35;;;10.75;;
22270;SDS011;11304;53.520;10.104;2022-12-07T01:53:02;20.58;;;11.98;;
22270;SDS011;11304;53.520;10.104;2022-12-07T01:55:30;20.60;;;11.13;;
22270;SDS011;11304;53.520;10.104;2022-12-07T01:57:56;20.08;;;10.98;;
22270;SDS011;11304;53.520;10.104;2022-12-07T02:00:22;18.15;;;11.25;;
22270;SDS011;11304;53.520;10.104;2022-12-07T02:03:05;21.88;;;11.95;;
22270;SDS011;11304;53.520;10.104;2022-12-07T02:05:33;16.27;;;10.82;;
22270;SDS011;11304;53.520;10.104;2022-12-07T02:08:00;21.52;;;11.10;;
22270;SDS011;11304;53.520;10.104;2022-12-07T02:10:27;16.10;;;11.00;;
22270;SDS011;11304;53.520;10.104;2022-12-07T02:15:28;17.40;;;10.07;;
22270;SDS011;11304;53.520;10.104;2022-12-07T02:18:06;18.92;;;10.57;;
22270;SDS011;11304;53.520;10.104;2022-12-07T02:20:35;17.63;;;9.20;;
22270;SDS011;11304;53.520;10.104;2022-12-07T02:23:18;16.20;;;9.55;;
22270;SDS011;11304;53.520;10.104;2022-12-07T02:31:15;15.00;;;8.45;;
22270;SDS011;11304;53.520;10.104;2022-12-07T02:33:45;15.40;;;8.98;;
22270;SDS011;11304;53.520;10.104;2022-12-07T02:36:15;12.82;;;8.25;;
22270;SDS011;11304;53.520;10.104;2022-12-07T02:41:22;16.15;;;8.00;;
22270;SDS011;11304;53.520;10.104;2022-12-07T02:43:52;15.68;;;7.40;;
22270;SDS011;11304;53.520;10.104;2022-12-07T02:46:23;11.98;;;7.47;;
22270;SDS011;11304;53.520;10.104;2022-12-07T02:48:51;14.20;;;8.00;;
22270;SDS011;11304;53.520;10.104;2022-12-07T02:51:18;15.65;;;7.53;;
22270;SDS011;11304;53.520;10.104;2022-12-07T02:53:44;13.85;;;7.30;;
22270;SDS011;11304;53.520;10.104;2022-12-07T02:58:45;19.13;;;7.82;;
22270;SDS011;11304;53.520;10.104;2022-12-07T03:01:21;12.05;;;7.03;;
22270;SDS011;11304;53.520;10.104;2022-12-07T03:03:58;15.48;;;6.88;;
22270;SDS011;11304;53.520;10.104;2022-12-07T03:06:28;12.70;;;6.88;;
22270;SDS011;11304;53.520;10.104;2022-12-07T03:09:13;10.75;;;6.35;;
22270;SDS011;11304;53.520;10.104;2022-12-07T03:14:40;10.35;;;5.63;;
22270;SDS011;11304;53.520;10.104;2022-12-07T03:17:07;8.93;;;4.32;;
22270;SDS011;11304;53.520;10.104;2022-12-07T03:19:35;9.13;;;4.95;;
22270;SDS011;11304;53.520;10.104;2022-12-07T03:22:04;10.20;;;4.50;;
22270;SDS011;11304;53.520;10.104;2022-12-07T03:24:33;10.80;;;4.20;;
22270;SDS011;11304;53.520;10.104;2022-12-07T03:27:03;8.48;;;4.03;;
22270;SDS011;11304;53.520;10.104;2022-12-07T03:35:00;6.63;;;3.08;;
22270;SDS011;11304;53.520;10.104;2022-12-07T03:40:07;8.65;;;3.00;;
22270;SDS011;11304;53.520;10.104;2022-12-07T03:42:36;8.30;;;2.80;;
22270;SDS011;11304;53.520;10.104;2022-12-07T03:45:02;8.98;;;2.58;;
22270;SDS011;11304;53.520;10.104;2022-12-07T06:34:50;6.10;;;2.70;;
22270;SDS011;11304;53.520;10.104;2022-12-07T06:37:16;7.82;;;3.25;;
22270;SDS011;11304;53.520;10.104;2022-12-07T06:39:42;8.40;;;3.38;;
22270;SDS011;11304;53.520;10.104;2022-12-07T06:42:09;11.55;;;3.42;;
22270;SDS011;11304;53.520;10.104;2022-12-07T06:44:35;10.07;;;3.65;;
22270;SDS011;11304;53.520;10.104;2022-12-07T06:47:01;10.98;;;3.65;;
22270;SDS011;11304;53.520;10.104;2022-12-07T06:49:27;9.63;;;3.20;;
22270;SDS011;11304;53.520;10.104;2022-12-07T06:51:53;9.55;;;3.80;;
22270;SDS011;11304;53.520;10.104;2022-12-07T06:54:19;10.43;;;3.20;;
22270;SDS011;11304;53.520;10.104;2022-12-07T06:56:45;10.48;;;3.45;;
22270;SDS011;11304;53.520;10.104;2022-12-07T06:59:11;9.52;;;2.97;;
22270;SDS011;11304;53.520;10.104;2022-12-07T07:01:37;5.07;;;2.33;;
22270;SDS011;11304;53.520;10.104;2022-12-07T07:04:04;8.48;;;2.65;;
22270;SDS011;11304;53.520;10.104;2022-12-07T07:06:30;13.73;;;2.83;;
22270;SDS011;11304;53.520;10.104;2022-12-07T07:08:56;13.73;;;2.58;;
22270;SDS011;11304;53.520;10.104;2022-12-07T07:11:22;8.90;;;3.20;;
22270;SDS011;11304;53.520;10.104;2022-12-07T07:13:48;12.52;;;3.00;;
22270;SDS011;11304;53.520;10.104;2022-12-07T07:16:14;6.75;;;2.95;;
22270;SDS011;11304;53.520;10.104;2022-12-07T07:18:41;10.38;;;2.72;;
22270;SDS011;11304;53.520;10.104;2022-12-07T07:21:07;8.48;;;2.95;;
22270;SDS011;11304;53.520;10.104;2022-12-07T07:23:33;6.30;;;2.65;;
22270;SDS011;11304;53.520;10.104;2022-12-07T07:25:59;10.95;;;3.08;;
22270;SDS011;11304;53.520;10.104;2022-12-07T07:28:25;9.73;;;2.60;;
22270;SDS011;11304;53.520;10.104;2022-12-07T07:30:51;7.82;;;2.30;;
22270;SDS011;11304;53.520;10.104;2022-12-07T07:33:17;5.47;;;1.95;;
22270;SDS011;11304;53.520;10.104;2022-12-07T07:35:43;5.40;;;1.73;;
22270;SDS011;11304;53.520;10.104;2022-12-07T07:38:09;10.23;;;3.00;;
22270;SDS011;11304;53.520;10.104;2022-12-07T07:40:36;7.40;;;2.55;;
22270;SDS011;11304;53.520;10.104;2022-12-07T07:43:02;11.70;;;2.47;;
22270;SDS011;11304;53.520;10.104;2022-12-07T07:45:28;6.75;;;2.00;;
22270;SDS011;11304;53.520;10.104;2022-12-07T07:47:54;8.45;;;2.42;;
22270;SDS011;11304;53.520;10.104;2022-12-07T07:50:20;10.20;;;2.63;;
22270;SDS011;11304;53.520;10.104;2022-12-07T07:52:46;8.35;;;2.13;;
22270;SDS011;11304;53.520;10.104;2022-12-07T07:55:13;4.40;;;1.70;;
22270;SDS011;11304;53.520;10.104;2022-12-07T07:57:39;9.18;;;2.20;;
22270;SDS011;11304;53.520;10.104;2022-12-07T08:00:10;5.78;;;1.73;;
22270;SDS011;11304;53.520;10.104;2022-12-07T08:02:36;6.57;;;1.90;;
22270;SDS011;11304;53.520;10.104;2022-12-07T08:05:02;7.47;;;2.15;;
22270;SDS011;11304;53.520;10.104;2022-12-07T08:07:28;7.38;;;2.55;;
22270;SDS011;11304;53.520;10.104;2022-12-07T08:09:55;12.75;;;2.60;;
22270;SDS011;11304;53.520;10.104;2022-12-07T08:12:21;4.40;;;1.75;;
22270;SDS011;11304;53.520;10.104;2022-12-07T08:14:47;5.28;;;1.90;;
22270;SDS011;11304;53.520;10.104;2022-12-07T08:17:13;6.45;;;2.10;;
22270;SDS011;11304;53.520;10.104;2022-12-07T08:19:39;6.20;;;1.90;;
22270;SDS011;11304;53.520;10.104;2022-12-07T08:22:05;8.05;;;2.17;;
22270;SDS011;11304;53.520;10.104;2022-12-07T08:24:34;6.25;;;2.08;;
22270;SDS011;11304;53.520;10.104;2022-12-07T08:27:01;7.72;;;1.88;;
22270;SDS011;11304;53.520;10.104;2022-12-07T08:29:27;5.57;;;1.90;;
22270;SDS011;11304;53.520;10.104;2022-12-07T08:31:53;8.63;;;2.05;;
22270;SDS011;11304;53.520;10.104;2022-12-07T08:34:19;11.05;;;2.10;;
22270;SDS011;11304;53.520;10.104;2022-12-07T08:36:45;8.00;;;2.28;;
22270;SDS011;11304;53.520;10.104;2022-12-07T08:39:11;8.10;;;1.92;;
22270;SDS011;11304;53.520;10.104;2022-12-07T08:41:38;7.15;;;2.03;;
22270;SDS011;11304;53.520;10.104;2022-12-07T08:44:04;7.05;;;1.60;;
22270;SDS011;11304;53.520;10.104;2022-12-07T08:49:19;6.28;;;2.00;;
22270;SDS011;11304;53.520;10.104;2022-12-07T08:51:46;6.35;;;2.30;;
22270;SDS011;11304;53.520;10.104;2022-12-07T08:54:13;8.55;;;2.15;;
22270;SDS011;11304;53.520;10.104;2022-12-07T08:56:40;8.70;;;2.40;;
22270;SDS011;11304;53.520;10.104;2022-12-07T08:59:06;11.27;;;2.50;;
22270;SDS011;11304;53.520;10.104;2022-12-07T09:01:33;6.75;;;2.28;;
22270;SDS011;11304;53.520;10.104;2022-12-07T09:03:59;7.97;;;2.17;;
22270;SDS011;11304;53.520;10.104;2022-12-07T09:06:25;8.07;;;2.30;;
22270;SDS011;11304;53.520;10.104;2022-12-07T09:08:52;17.50;;;2.85;;
22270;SDS011;11304;53.520;10.104;2022-12-07T09:11:19;14.18;;;2.25;;
22270;SDS011;11304;53.520;10.104;2022-12-07T09:13:46;10.23;;;2.83;;
22270;SDS011;11304;53.520;10.104;2022-12-07T09:16:12;8.23;;;2.10;;
22270;SDS011;11304;53.520;10.104;2022-12-07T09:18:38;11.48;;;2.55;;
22270;SDS011;11304;53.520;10.104;2022-12-07T09:21:04;8.63;;;2.50;;
22270;SDS011;11304;53.520;10.104;2022-12-07T09:23:30;5.70;;;2.30;;
22270;SDS011;11304;53.520;10.104;2022-12-07T09:26:00;15.30;;;2.78;;
22270;SDS011;11304;53.520;10.104;2022-12-07T09:28:26;9.30;;;2.53;;
22270;SDS011;11304;53.520;10.104;2022-12-07T09:30:53;12.30;;;2.85;;
22270;SDS011;11304;53.520;10.104;2022-12-07T09:33:19;8.73;;;2.38;;
22270;SDS011;11304;53.520;10.104;2022-12-07T09:35:45;11.90;;;2.08;;
22270;SDS011;11304;53.520;10.104;2022-12-07T09:38:12;8.68;;;2.10;;
22270;SDS011;11304;53.520;10.104;2022-12-07T09:40:38;10.65;;;1.83;;
22270;SDS011;11304;53.520;10.104;2022-12-07T09:43:05;8.85;;;2.10;;
22270;SDS011;11304;53.520;10.104;2022-12-07T09:47:57;8.20;;;2.20;;
22270;SDS011;11304;53.520;10.104;2022-12-07T09:50:25;12.73;;;2.10;;
22270;SDS011;11304;53.520;10.104;2022-12-07T09:52:51;8.45;;;1.95;;
22270;SDS011;11304;53.520;10.104;2022-12-07T09:55:23;9.98;;;2.50;;
22270;SDS011;11304;53.520;10.104;2022-12-07T09:57:50;5.32;;;1.50;;
22270;SDS011;11304;53.520;10.104;2022-12-07T10:00:18;9.75;;;2.00;;
22270;SDS011;11304;53.520;10.104;2022-12-07T10:05:16;10.15;;;2.30;;
22270;SDS011;11304;53.520;10.104;2022-12-07T10:07:44;7.10;;;2.00;;
22270;SDS011;11304;53.520;10.104;2022-12-07T10:10:13;5.00;;;1.45;;
22270;SDS011;11304;53.520;10.104;2022-12-07T10:12:53;9.63;;;1.92;;
22270;SDS011;11304;53.520;10.104;2022-12-07T10:15:20;11.93;;;1.98;;
22270;SDS011;11304;53.520;10.104;2022-12-07T10:17:50;7.25;;;1.85;;
22270;SDS011;11304;53.520;10.104;2022-12-07T10:20:18;6.80;;;1.90;;
22270;SDS011;11304;53.520;10.104;2022-12-07T10:22:54;7.35;;;1.85;;
22270;SDS011;11304;53.520;10.104;2022-12-07T10:25:21;6.43;;;1.80;;
22270;SDS011;11304;53.520;10.104;2022-12-07T10:28:01;6.90;;;1.80;;
22270;SDS011;11304;53.520;10.104;2022-12-07T10:30:27;6.13;;;1.70;;
22270;SDS011;11304;53.520;10.104;2022-12-07T10:32:54;9.15;;;2.17;;
22270;SDS011;11304;53.520;10.104;2022-12-07T10:35:22;4.40;;;1.70;;
22270;SDS011;11304;53.520;10.104;2022-12-07T10:37:49;5.45;;;1.40;;
22270;SDS011;11304;53.520;10.104;2022-12-07T10:40:32;5.25;;;1.30;;
22270;SDS011;11304;53.520;10.104;2022-12-07T10:43:17;6.20;;;1.40;;
22270;SDS011;11304;53.520;10.104;2022-12-07T10:48:19;5.38;;;1.20;;
22270;SDS011;11304;53.520;10.104;2022-12-07T10:56:11;6.18;;;1.30;;
22270;SDS011;11304;53.520;10.104;2022-12-07T10:59:01;8.00;;;1.23;;
22270;SDS011;11304;53.520;10.104;2022-12-07T11:01:31;7.13;;;1.38;;
22270;SDS011;11304;53.520;10.104;2022-12-07T11:06:34;5.53;;;1.40;;
22270;SDS011;11304;53.520;10.104;2022-12-07T11:09:15;6.78;;;1.15;;
22270;SDS011;11304;53.520;10.104;2022-12-07T11:11:50;3.75;;;1.48;;
22270;SDS011;11304;53.520;10.104;2022-12-07T11:16:58;6.15;;;1.13;;
22270;SDS011;11304;53.520;10.104;2022-12-07T11:22:04;5.18;;;1.30;;
22270;SDS011;11304;53.520;10.104;2022-12-07T11:37:17;10.48;;;1.40;;
22270;SDS011;11304;53.520;10.104;2022-12-07T11:39:47;6.22;;;1.25;;
22270;SDS011;11304;53.520;10.104;2022-12-07T11:42:16;8.20;;;1.58;;
22270;SDS011;11304;53.520;10.104;2022-12-07T11:44:48;5.93;;;1.30;;
22270;SDS011;11304;53.520;10.104;2022-12-07T11:54:59;11.20;;;1.48;;
22270;SDS011;11304;53.520;10.104;2022-12-07T11:57:34;7.93;;;1.38;;
22270;SDS011;11304;53.520;10.104;2022-12-07T12:00:03;12.10;;;1.75;;
22270;SDS011;11304;53.520;10.104;2022-12-07T12:07:44;8.65;;;1.65;;
22270;SDS011;11304;53.520;10.104;2022-12-07T12:10:21;5.18;;;1.30;;
22270;SDS011;11304;53.520;10.104;2022-12-07T12:16:36;10.13;;;1.67;;
22270;SDS011;11304;53.520;10.104;2022-12-07T12:18:36;5.47;;;1.30;;
22270;SDS011;11304;53.520;10.104;2022-12-07T12:21:08;6.82;;;1.60;;
22270;SDS011;11304;53.520;10.104;2022-12-07T12:23:37;11.43;;;1.52;;
22270;SDS011;11304;53.520;10.104;2022-12-07T12:26:06;5.93;;;1.83;;
22270;SDS011;11304;53.520;10.104;2022-12-07T12:28:40;6.68;;;1.20;;
22270;SDS011;11304;53.520;10.104;2022-12-07T12:31:09;9.30;;;1.52;;
22270;SDS011;11304;53.520;10.104;2022-12-07T12:33:35;6.72;;;1.63;;
22270;SDS011;11304;53.520;10.104;2022-12-07T12:47:02;9.05;;;1.58;;
22270;SDS011;11304;53.520;10.104;2022-12-07T12:49:37;5.82;;;1.50;;
22270;SDS011;11304;53.520;10.104;2022-12-07T12:57:27;6.80;;;1.70;;
22270;SDS011;11304;53.520;10.104;2022-12-07T13:07:47;8.30;;;1.58;;
22270;SDS011;11304;53.520;10.104;2022-12-07T13:10:01;9.57;;;1.88;;
22270;SDS011;11304;53.520;10.104;2022-12-07T13:12:28;9.65;;;1.70;;
22270;SDS011;11304;53.520;10.104;2022-12-07T13:14:55;8.32;;;1.70;;
22270;SDS011;11304;53.520;10.104;2022-12-07T13:19:58;11.27;;;1.77;;
22270;SDS011;11304;53.520;10.104;2022-12-07T13:25:08;11.75;;;2.33;;
22270;SDS011;11304;53.520;10.104;2022-12-07T13:27:37;13.55;;;1.63;;
22270;SDS011;11304;53.520;10.104;2022-12-07T13:30:12;11.57;;;1.92;;
22270;SDS011;11304;53.520;10.104;2022-12-07T13:32:39;7.97;;;1.48;;
22270;SDS011;11304;53.520;10.104;2022-12-07T13:37:50;17.27;;;2.42;;
22270;SDS011;11304;53.520;10.104;2022-12-07T13:40:17;12.27;;;1.63;;
22270;SDS011;11304;53.520;10.104;2022-12-07T13:42:44;7.97;;;2.08;;
22270;SDS011;11304;53.520;10.104;2022-12-07T13:45:23;10.70;;;1.63;;
22270;SDS011;11304;53.520;10.104;2022-12-07T13:48:29;13.57;;;1.65;;
22270;SDS011;11304;53.520;10.104;2022-12-07T13:50:58;8.85;;;1.88;;
22270;SDS011;11304;53.520;10.104;2022-12-07T13:53:25;8.40;;;1.40;;
22270;SDS011;11304;53.520;10.104;2022-12-07T13:55:55;13.82;;;2.13;;
22270;SDS011;11304;53.520;10.104;2022-12-07T13:58:21;9.00;;;1.33;;
22270;SDS011;11304;53.520;10.104;2022-12-07T14:00:48;10.27;;;1.40;;
22270;SDS011;11304;53.520;10.104;2022-12-07T14:05:41;12.50;;;1.27;;
22270;SDS011;11304;53.520;10.104;2022-12-07T14:13:03;15.38;;;1.58;;
22270;SDS011;11304;53.520;10.104;2022-12-07T14:15:31;12.30;;;2.17;;
22270;SDS011;11304;53.520;10.104;2022-12-07T14:17:58;6.03;;;1.27;;
22270;SDS011;11304;53.520;10.104;2022-12-07T14:23:00;10.68;;;1.25;;
22270;SDS011;11304;53.520;10.104;2022-12-07T14:26:07;14.55;;;1.83;;
22270;SDS011;11304;53.520;10.104;2022-12-07T14:30:52;6.32;;;1.15;;
22270;SDS011;11304;53.520;10.104;2022-12-07T14:33:18;14.38;;;1.60;;
22270;SDS011;11304;53.520;10.104;2022-12-07T14:35:44;10.02;;;1.20;;
22270;SDS011;11304;53.520;10.104;2022-12-07T14:38:10;10.25;;;1.83;;
22270;SDS011;11304;53.520;10.104;2022-12-07T14:40:36;9.95;;;1.35;;
22270;SDS011;11304;53.520;10.104;2022-12-07T14:45:30;9.50;;;1.70;;
22270;SDS011;11304;53.520;10.104;2022-12-07T14:47:56;16.27;;;1.50;;
22270;SDS011;11304;53.520;10.104;2022-12-07T14:50:22;8.88;;;1.20;;
22270;SDS011;11304;53.520;10.104;2022-12-07T14:52:59;4.20;;;0.98;;
22270;SDS011;11304;53.520;10.104;2022-12-07T14:55:26;7.20;;;1.42;;
22270;SDS011;11304;53.520;10.104;2022-12-07T17:28:16;42.20;;;22.05;;
22270;SDS011;11304;53.520;10.104;2022-12-07T17:30:42;41.13;;;20.95;;
22270;SDS011;11304;53.520;10.104;2022-12-07T17:33:08;40.95;;;19.23;;
22270;SDS011;11304;53.520;10.104;2022-12-07T17:35:34;34.35;;;16.45;;
22270;SDS011;11304;53.520;10.104;2022-12-07T17:38:00;33.58;;;16.42;;
22270;SDS011;11304;53.520;10.104;2022-12-07T17:40:26;39.03;;;20.58;;
22270;SDS011;11304;53.520;10.104;2022-12-07T17:42:53;35.28;;;17.70;;
22270;SDS011;11304;53.520;10.104;2022-12-07T17:45:19;33.35;;;14.88;;
22270;SDS011;11304;53.520;10.104;2022-12-07T17:47:45;26.45;;;14.32;;
22270;SDS011;11304;53.520;10.104;2022-12-07T17:50:11;38.97;;;19.35;;
22270;SDS011;11304;53.520;10.104;2022-12-07T17:52:38;42.97;;;22.85;;
22270;SDS011;11304;53.520;10.104;2022-12-07T17:55:23;36.00;;;18.70;;
22270;SDS011;11304;53.520;10.104;2022-12-07T17:57:50;31.95;;;14.13;;
22270;SDS011;11304;53.520;10.104;2022-12-07T18:00:16;25.60;;;13.52;;
22270;SDS011;11304;53.520;10.104;2022-12-07T18:02:43;29.80;;;16.75;;
22270;SDS011;11304;53.520;10.104;2022-12-07T18:05:09;26.10;;;14.02;;
22270;SDS011;11304;53.520;10.104;2022-12-07T18:07:35;26.52;;;13.18;;
22270;SDS011;11304;53.520;10.104;2022-12-07T18:10:02;24.85;;;12.38;;
22270;SDS011;11304;53.520;10.104;2022-12-07T18:12:31;35.70;;;14.10;;
22270;SDS011;11304;53.520;10.104;2022-12-07T18:14:57;32.55;;;14.10;;
22270;SDS011;11304;53.520;10.104;2022-12-07T18:17:23;21.48;;;10.98;;
22270;SDS011;11304;53.520;10.104;2022-12-07T18:19:49;22.20;;;10.95;;
22270;SDS011;11304;53.520;10.104;2022-12-07T18:22:15;25.35;;;11.10;;
22270;SDS011;11304;53.520;10.104;2022-12-07T18:24:42;23.15;;;11.90;;
22270;SDS011;11304;53.520;10.104;2022-12-07T18:27:08;20.05;;;11.35;;
22270;SDS011;11304;53.520;10.104;2022-12-07T18:29:34;28.45;;;12.10;;
22270;SDS011;11304;53.520;10.104;2022-12-07T18:32:00;41.67;;;15.65;;
22270;SDS011;11304;53.520;10.104;2022-12-07T18:34:28;27.50;;;12.65;;
22270;SDS011;11304;53.520;10.104;2022-12-07T18:36:55;22.02;;;11.63;;
22270;SDS011;11304;53.520;10.104;2022-12-07T18:39:21;33.42;;;14.63;;
22270;SDS011;11304;53.520;10.104;2022-12-07T18:41:47;30.50;;;12.18;;
22270;SDS011;11304;53.520;10.104;2022-12-07T18:44:14;24.88;;;11.57;;
22270;SDS011;11304;53.520;10.104;2022-12-07T18:46:41;23.15;;;10.98;;
22270;SDS011;11304;53.520;10.104;2022-12-07T18:49:08;19.98;;;10.18;;
22270;SDS011;11304;53.520;10.104;2022-12-07T18:51:36;21.60;;;10.05;;
22270;SDS011;11304;53.520;10.104;2022-12-07T18:54:02;20.27;;;10.43;;
22270;SDS011;11304;53.520;10.104;2022-12-07T18:56:29;24.35;;;10.13;;
22270;SDS011;11304;53.520;10.104;2022-12-07T18:59:02;21.20;;;10.00;;
22270;SDS011;11304;53.520;10.104;2022-12-07T19:01:48;17.60;;;7.80;;
22270;SDS011;11304;53.520;10.104;2022-12-07T19:04:15;18.23;;;8.33;;
22270;SDS011;11304;53.520;10.104;2022-12-07T19:06:42;16.88;;;7.72;;
22270;SDS011;11304;53.520;10.104;2022-12-07T19:09:08;13.93;;;6.78;;
22270;SDS011;11304;53.520;10.104;2022-12-07T19:11:34;15.10;;;7.05;;
22270;SDS011;11304;53.520;10.104;2022-12-07T19:14:13;13.88;;;6.95;;
22270;SDS011;11304;53.520;10.104;2022-12-07T19:16:41;18.33;;;6.95;;
22270;SDS011;11304;53.520;10.104;2022-12-07T19:19:07;12.60;;;5.40;;
22270;SDS011;11304;53.520;10.104;2022-12-07T19:21:33;12.63;;;6.18;;
22270;SDS011;11304;53.520;10.104;2022-12-07T19:24:02;26.05;;;7.95;;
22270;SDS011;11304;53.520;10.104;2022-12-07T19:26:28;16.45;;;7.57;;
22270;SDS011;11304;53.520;10.104;2022-12-07T19:28:54;16.23;;;6.97;;
22270;SDS011;11304;53.520;10.104;2022-12-07T19:31:20;15.73;;;6.47;;
22270;SDS011;11304;53.520;10.104;2022-12-07T19:33:46;13.88;;;6.57;;
22270;SDS011;11304;53.520;10.104;2022-12-07T19:36:12;12.65;;;6.78;;
22270;SDS011;11304;53.520;10.104;2022-12-07T19:38:38;17.23;;;6.78;;
22270;SDS011;11304;53.520;10.104;2022-12-07T19:41:06;15.77;;;6.70;;
22270;SDS011;11304;53.520;10.104;2022-12-07T19:43:32;19.40;;;7.30;;
22270;SDS011;11304;53.520;10.104;2022-12-07T19:46:05;16.15;;;7.70;;
22270;SDS011;11304;53.520;10.104;2022-12-07T19:48:33;14.43;;;7.07;;
22270;SDS011;11304;53.520;10.104;2022-12-07T19:51:02;14.48;;;6.82;;
22270;SDS011;11304;53.520;10.104;2022-12-07T19:53:30;17.35;;;6.38;;
22270;SDS011;11304;53.520;10.104;2022-12-07T19:55:57;19.33;;;6.78;;
22270;SDS011;11304;53.520;10.104;2022-12-07T19:58:23;14.70;;;6.05;;
22270;SDS011;11304;53.520;10.104;2022-12-07T20:00:49;18.33;;;6.35;;
22270;SDS011;11304;53.520;10.104;2022-12-07T20:03:15;11.00;;;5.35;;
22270;SDS011;11304;53.520;10.104;2022-12-07T20:05:41;16.55;;;5.97;;
22270;SDS011;11304;53.520;10.104;2022-12-07T20:08:07;10.98;;;5.55;;
22270;SDS011;11304;53.520;10.104;2022-12-07T20:10:33;15.50;;;6.10;;
22270;SDS011;11304;53.520;10.104;2022-12-07T20:12:59;13.43;;;6.10;;
22270;SDS011;11304;53.520;10.104;2022-12-07T20:15:44;16.50;;;6.35;;
22270;SDS011;11304;53.520;10.104;2022-12-07T20:18:10;15.88;;;6.68;;
22270;SDS011;11304;53.520;10.104;2022-12-07T20:20:36;13.05;;;6.20;;
22270;SDS011;11304;53.520;10.104;2022-12-07T20:23:02;12.27;;;5.55;;
22270;SDS011;11304;53.520;10.104;2022-12-07T20:25:28;20.13;;;6.30;;
22270;SDS011;11304;53.520;10.104;2022-12-07T20:27:55;16.17;;;5.90;;
22270;SDS011;11304;53.520;10.104;2022-12-07T20:30:21;12.10;;;5.47;;
22270;SDS011;11304;53.520;10.104;2022-12-07T20:32:48;10.23;;;5.38;;
22270;SDS011;11304;53.520;10.104;2022-12-07T20:35:14;10.15;;;5.50;;
22270;SDS011;11304;53.520;10.104;2022-12-07T20:37:40;11.52;;;5.65;;
22270;SDS011;11304;53.520;10.104;2022-12-07T20:40:06;14.43;;;6.38;;
22270;SDS011;11304;53.520;10.104;2022-12-07T20:42:32;12.57;;;6.13;;
22270;SDS011;11304;53.520;10.104;2022-12-07T20:45:02;10.68;;;5.15;;
22270;SDS011;11304;53.520;10.104;2022-12-07T20:47:30;7.45;;;3.90;;
22270;SDS011;11304;53.520;10.104;2022-12-07T20:49:58;10.35;;;5.85;;
22270;SDS011;11304;53.520;10.104;2022-12-07T20:52:24;14.15;;;5.47;;
22270;SDS011;11304;53.520;10.104;2022-12-07T20:54:50;9.13;;;5.30;;
22270;SDS011;11304;53.520;10.104;2022-12-07T20:57:17;12.32;;;4.68;;
22270;SDS011;11304;53.520;10.104;2022-12-07T20:59:43;11.73;;;5.05;;
22270;SDS011;11304;53.520;10.104;2022-12-07T21:02:10;9.18;;;5.03;;
22270;SDS011;11304;53.520;10.104;2022-12-07T21:04:36;15.52;;;5.93;;
22270;SDS011;11304;53.520;10.104;2022-12-07T21:07:02;14.60;;;5.88;;
22270;SDS011;11304;53.520;10.104;2022-12-07T21:09:28;9.82;;;5.03;;
22270;SDS011;11304;53.520;10.104;2022-12-07T21:11:54;11.90;;;5.72;;
22270;SDS011;11304;53.520;10.104;2022-12-07T21:14:20;11.18;;;5.63;;
22270;SDS011;11304;53.520;10.104;2022-12-07T21:16:46;10.38;;;5.03;;
22270;SDS011;11304;53.520;10.104;2022-12-07T21:19:13;10.95;;;5.15;;
22270;SDS011;11304;53.520;10.104;2022-12-07T21:21:39;10.38;;;5.03;;
22270;SDS011;11304;53.520;10.104;2022-12-07T21:24:05;10.50;;;5.15;;
22270;SDS011;11304;53.520;10.104;2022-12-07T21:26:33;10.85;;;5.80;;
22270;SDS011;11304;53.520;10.104;2022-12-07T21:28:59;11.98;;;5.13;;
22270;SDS011;11304;53.520;10.104;2022-12-07T21:31:25;12.57;;;5.40;;
22270;SDS011;11304;53.520;10.104;2022-12-07T21:33:52;10.70;;;5.05;;
22270;SDS011;11304;53.520;10.104;2022-12-07T21:36:19;11.00;;;4.90;;
22270;SDS011;11304;53.520;10.104;2022-12-07T21:38:45;7.13;;;4.40;;
22270;SDS011;11304;53.520;10.104;2022-12-07T21:41:15;8.52;;;5.50;;
22270;SDS011;11304;53.520;10.104;2022-12-07T21:43:41;11.48;;;5.45;;
22270;SDS011;11304;53.520;10.104;2022-12-07T21:46:08;12.80;;;4.88;;
22270;SDS011;11304;53.520;10.104;2022-12-07T21:48:34;8.80;;;5.28;;